Forside
METAR-TAF:

METAR-TAF

Lufthavne :

Land O' Lakes, Wisconsin, USA

Breddekreds: 46-09-14N, længdekreds: 089-12-43W, højde: 520 m

Aktuelle vejr

Denne rapport blev lavet for 28 minutter siden, kl. 11:15 UTC
Vind 6 kt fra sydøst
Temperatur -4°C
Fugtighed 93%
Tryk 1022 hPa
Sigt: 16.1 km
Brudte skyer i en højde af 700 ft
Overskyet i en højde af 2500 ft

METAR: KLNL 241115Z AUTO 14006KT 10SM BKN007 OVC025 M04/M05 A3018 RMK AO2 T10451051

Tid: 05:43 (11:43 UTC)


TAF: fraværende

Vejrobservationer og prognoser fra mere end 4000 lufthavne (METAR og TAF).

De gule og røde prikker repræsenterer de meteorologiske stationer.

Flyt musen over at se navnet på stationen.

Så klik over at se vejr observationer og prognoser.

At skifte det kort: Klik på de grønne knapper med et sort kors for at zoome ind; på den grønne knap med en bindestreg for at zoome ud; eller på de grønne pile for tilstødende kort.


METAR-TAF: